Time;durP1;ratioP1;P1;durP2;ratioP2;P2;SDS_P1;SDS_P2;PMS_P1;PMS_P2;Temp;Humidity;BMP_temperature;BMP_pressure;BME280_temperature;BME280_humidity;BME280_pressure;Samples;Min_cycle;Max_cycle;Signal;HPM_P1;HPM_P2
2024/01/20 00:00:16;;;;;;;1.23;0.60;;;1.20;1.00;;;;;;5021576;28;20083;-87
2024/01/20 00:02:44;;;;;;;0.93;0.60;;;1.20;1.00;;;;;;5020011;28;20048;-87
2024/01/20 00:05:11;;;;;;;1.38;0.68;;;1.30;1.00;;;;;;5017432;28;20049;-87
2024/01/20 00:07:40;;;;;;;0.85;0.60;;;1.30;1.00;;;;;;5017079;28;20055;-87
2024/01/20 00:10:11;;;;;;;1.20;0.77;;;1.30;1.00;;;;;;5018067;28;20135;-87
2024/01/20 00:12:40;;;;;;;0.77;0.60;;;1.40;1.00;;;;;;5017084;28;20163;-87
2024/01/20 00:15:09;;;;;;;2.22;0.93;;;1.40;1.00;;;;;;5015588;28;20045;-86
2024/01/20 00:17:38;;;;;;;0.90;0.60;;;1.50;1.00;;;;;;5028969;28;20049;-86
2024/01/20 00:20:07;;;;;;;0.98;0.45;;;1.50;1.00;;;;;;5028961;28;20052;-87
2024/01/20 00:22:36;;;;;;;0.88;0.50;;;1.50;1.00;;;;;;5028818;28;20087;-87
2024/01/20 00:25:04;;;;;;;0.47;0.47;;;1.50;1.00;;;;;;5045348;28;20057;-86
2024/01/20 00:27:31;;;;;;;1.10;0.80;;;1.50;1.00;;;;;;5016544;28;20133;-87
2024/01/20 00:30:00;;;;;;;1.35;0.52;;;1.50;1.00;;;;;;5020011;28;20124;-86
2024/01/20 00:32:29;;;;;;;0.80;0.50;;;1.50;1.00;;;;;;5017875;28;20434;-86
2024/01/20 00:34:58;;;;;;;0.90;0.43;;;1.50;1.00;;;;;;5016492;28;20099;-87
2024/01/20 00:37:37;;;;;;;1.13;0.70;;;1.50;1.00;;;;;;5019100;28;20053;-88
2024/01/20 00:40:11;;;;;;;0.70;0.50;;;1.40;1.00;;;;;;5016675;28;20051;-87
2024/01/20 00:42:38;;;;;;;0.95;0.50;;;1.40;1.00;;;;;;5016596;28;20395;-86
2024/01/20 00:45:07;;;;;;;0.80;0.50;;;1.40;1.00;;;;;;5015737;28;20056;-86
2024/01/20 00:47:36;;;;;;;0.75;0.45;;;1.40;1.00;;;;;;5022295;28;20139;-86
2024/01/20 00:50:06;;;;;;;0.52;0.47;;;1.40;1.00;;;;;;5016428;28;20170;-86
2024/01/20 00:52:33;;;;;;;1.60;0.50;;;1.40;1.00;;;;;;5016045;28;20655;-86
2024/01/20 00:55:02;;;;;;;1.20;0.60;;;1.30;1.00;;;;;;5015308;28;20644;-87
2024/01/20 00:57:36;;;;;;;0.93;0.65;;;1.30;1.00;;;;;;5015662;28;20049;-87
2024/01/20 01:00:08;;;;;;;0.73;0.43;;;1.30;1.00;;;;;;5015599;28;20060;-87
2024/01/20 01:02:40;;;;;;;0.50;0.50;;;1.20;1.00;;;;;;5033515;28;20049;-87
2024/01/20 01:05:16;;;;;;;0.50;0.40;;;1.20;1.00;;;;;;5015935;28;20553;-87
2024/01/20 01:07:43;;;;;;;0.43;0.43;;;1.10;1.00;;;;;;5011848;28;20144;-87
2024/01/20 01:10:10;;;;;;;0.65;0.50;;;1.10;1.00;;;;;;5028696;28;20140;-87
2024/01/20 01:12:49;;;;;;;0.60;0.60;;;1.10;1.00;;;;;;5028098;28;20053;-87
2024/01/20 01:15:21;;;;;;;0.98;0.57;;;1.10;1.00;;;;;;5045829;28;20072;-86
2024/01/20 01:17:48;;;;;;;0.93;0.70;;;1.10;1.00;;;;;;5015390;28;20056;-86
2024/01/20 01:20:20;;;;;;;1.08;0.90;;;1.10;1.00;;;;;;5014806;28;20148;-86
2024/01/20 01:22:50;;;;;;;0.40;0.40;;;1.00;1.00;;;;;;5014596;28;20110;-85
2024/01/20 01:25:19;;;;;;;0.80;0.63;;;1.00;1.00;;;;;;5011025;28;20061;-86
2024/01/20 01:27:48;;;;;;;1.05;0.60;;;1.00;1.00;;;;;;5011799;28;20052;-85
2024/01/20 01:30:19;;;;;;;0.95;0.70;;;1.10;1.00;;;;;;5027953;28;20057;-85
2024/01/20 01:32:49;;;;;;;1.13;0.80;;;1.10;1.00;;;;;;5044076;28;20049;-85
2024/01/20 01:35:17;;;;;;;0.70;0.57;;;1.20;1.00;;;;;;5026901;28;20127;-85
2024/01/20 01:37:44;;;;;;;0.65;0.52;;;1.20;1.00;;;;;;5014283;28;20088;-84
2024/01/20 01:40:17;;;;;;;1.02;0.70;;;1.20;1.00;;;;;;5014419;28;20059;-84
2024/01/20 01:42:44;;;;;;;0.95;0.60;;;1.30;1.00;;;;;;5014938;28;20461;-87
2024/01/20 01:45:12;;;;;;;1.08;0.57;;;1.30;1.00;;;;;;5014527;28;20068;-85
2024/01/20 01:47:39;;;;;;;1.27;0.85;;;1.30;1.00;;;;;;5014941;28;20045;-86
2024/01/20 01:50:07;;;;;;;1.55;0.75;;;1.30;1.00;;;;;;5014432;28;20048;-86
2024/01/20 01:52:35;;;;;;;1.08;0.57;;;1.30;1.00;;;;;;5014061;28;20045;-85
2024/01/20 01:55:07;;;;;;;1.08;0.65;;;1.30;1.20;;;;;;5010116;28;20053;-85
2024/01/20 01:57:35;;;;;;;0.93;0.70;;;1.40;35.10;;;;;;5036599;28;20069;-85
2024/01/20 02:00:04;;;;;;;1.20;0.75;;;1.40;41.90;;;;;;5013576;28;20052;-85
2024/01/20 02:02:31;;;;;;;1.13;0.60;;;1.40;54.10;;;;;;5014879;28;20105;-85
2024/01/20 02:04:58;;;;;;;1.20;0.70;;;1.50;59.40;;;;;;5010760;28;20496;-85
2024/01/20 02:07:27;;;;;;;1.25;0.75;;;1.40;62.40;;;;;;5035416;28;20071;-85
2024/01/20 02:09:54;;;;;;;1.20;0.70;;;1.50;82.20;;;;;;5013421;28;20049;-86
2024/01/20 02:12:24;;;;;;;0.57;0.57;;;1.50;67.90;;;;;;5013940;28;20049;-86
2024/01/20 02:14:53;;;;;;;1.33;0.65;;;1.50;77.20;;;;;;5013243;28;20056;-85
2024/01/20 02:17:20;;;;;;;0.85;0.55;;;1.50;73.80;;;;;;5013729;28;20076;-85
2024/01/20 02:19:54;;;;;;;1.95;0.85;;;1.50;99.90;;;;;;5012632;28;20053;-85
2024/01/20 02:22:23;;;;;;;0.95;0.75;;;1.50;99.90;;;;;;5012802;28;20068;-85
2024/01/20 02:24:50;;;;;;;1.20;0.70;;;1.60;99.90;;;;;;5012746;28;20064;-85
2024/01/20 02:27:17;;;;;;;0.95;0.70;;;1.60;99.90;;;;;;5010115;28;20064;-85
2024/01/20 02:29:46;;;;;;;1.17;0.85;;;1.60;99.90;;;;;;5026686;28;20135;-85
2024/01/20 02:32:13;;;;;;;1.05;0.60;;;1.70;99.90;;;;;;5028240;28;20049;-85
2024/01/20 02:34:41;;;;;;;1.90;0.75;;;1.70;99.90;;;;;;5029222;28;20442;-85
2024/01/20 02:37:08;;;;;;;0.55;0.52;;;1.80;1.00;;;;;;5034150;28;20056;-85
2024/01/20 02:39:35;;;;;;;0.75;0.57;;;1.80;1.00;;;;;;5015510;28;20059;-85
2024/01/20 02:42:02;;;;;;;0.77;0.60;;;1.80;1.00;;;;;;5031953;28;20067;-86
2024/01/20 02:44:29;;;;;;;1.02;0.80;;;1.80;1.00;;;;;;5031216;28;20518;-85
2024/01/20 02:46:57;;;;;;;1.38;0.70;;;1.90;1.00;;;;;;5031359;28;20056;-84
2024/01/20 02:49:26;;;;;;;1.17;0.52;;;1.90;89.80;;;;;;5015216;28;20106;-84
2024/01/20 02:51:53;;;;;;;0.85;0.70;;;1.90;99.90;;;;;;5014866;28;20102;-85
2024/01/20 02:54:21;;;;;;;0.68;0.60;;;1.90;99.90;;;;;;5014186;28;20052;-85
2024/01/20 02:56:50;;;;;;;1.20;0.70;;;2.00;99.90;;;;;;5015292;28;20053;-84
2024/01/20 02:59:17;;;;;;;1.10;0.60;;;2.00;99.90;;;;;;5014354;28;20402;-85
2024/01/20 03:01:45;;;;;;;1.05;0.70;;;2.10;99.90;;;;;;5012136;28;20049;-84
2024/01/20 03:04:13;;;;;;;2.00;0.90;;;2.10;99.90;;;;;;5028456;28;20048;-85
2024/01/20 03:06:40;;;;;;;0.80;0.65;;;2.10;99.90;;;;;;5014512;28;20041;-85
2024/01/20 03:09:14;;;;;;;2.15;0.88;;;2.10;97.20;;;;;;5013856;28;20082;-85
2024/01/20 03:11:45;;;;;;;0.68;0.60;;;2.20;96.90;;;;;;5015774;28;20417;-85
2024/01/20 03:14:11;;;;;;;1.35;0.73;;;2.20;21.00;;;;;;5012979;28;20114;-84
2024/01/20 03:16:41;;;;;;;0.98;0.70;;;2.10;1.00;;;;;;5014130;28;20060;-85
2024/01/20 03:19:08;;;;;;;0.82;0.70;;;2.10;4.50;;;;;;5016120;28;20311;-84
2024/01/20 03:21:36;;;;;;;1.02;0.60;;;2.10;1.00;;;;;;5017166;28;20537;-84
2024/01/20 03:24:06;;;;;;;1.10;0.70;;;2.10;1.00;;;;;;5016708;28;20056;-85
2024/01/20 03:26:33;;;;;;;1.08;0.70;;;2.10;1.00;;;;;;5018264;28;20049;-86
2024/01/20 03:29:01;;;;;;;1.20;0.60;;;2.10;1.00;;;;;;5016743;28;20053;-84
2024/01/20 03:31:28;;;;;;;1.25;0.80;;;2.20;1.00;;;;;;5020340;28;20059;-85
2024/01/20 03:33:56;;;;;;;1.58;0.85;;;2.20;1.00;;;;;;5016921;28;20053;-85
2024/01/20 03:36:23;;;;;;;1.42;0.90;;;2.20;99.90;;;;;;5033686;28;20056;-85
2024/01/20 03:38:50;;;;;;;1.00;0.88;;;2.20;99.90;;;;;;5051561;28;20067;-84
2024/01/20 03:41:18;;;;;;;1.27;0.68;;;2.30;99.90;;;;;;5016419;28;20045;-84
2024/01/20 03:43:47;;;;;;;0.82;0.52;;;2.30;99.90;;;;;;5033388;28;20076;-84
2024/01/20 03:46:16;;;;;;;0.50;0.50;;;2.30;99.90;;;;;;5017895;28;20052;-84
2024/01/20 03:48:43;;;;;;;0.40;0.40;;;2.20;99.90;;;;;;5017713;28;20052;-84
2024/01/20 03:51:12;;;;;;;1.02;0.40;;;2.20;99.90;;;;;;5018636;28;20208;-84
2024/01/20 03:53:39;;;;;;;0.98;0.60;;;2.20;99.90;;;;;;5013622;28;20537;-84
2024/01/20 03:56:07;;;;;;;0.73;0.50;;;2.20;99.90;;;;;;5030809;28;20080;-85
2024/01/20 03:58:39;;;;;;;0.75;0.60;;;2.10;99.90;;;;;;5048708;28;20071;-84
2024/01/20 04:01:07;;;;;;;1.48;0.55;;;2.10;99.90;;;;;;5034787;28;20060;-85
2024/01/20 04:03:35;;;;;;;0.75;0.50;;;2.00;99.90;;;;;;5034753;28;20052;-86
2024/01/20 04:06:05;;;;;;;0.93;0.57;;;2.00;99.90;;;;;;5018537;28;20056;-85
2024/01/20 04:08:32;;;;;;;0.95;0.60;;;2.00;99.10;;;;;;5017139;28;20624;-85
2024/01/20 04:11:05;;;;;;;0.52;0.50;;;2.00;95.40;;;;;;5014539;28;20064;-84
2024/01/20 04:13:37;;;;;;;0.80;0.52;;;2.00;76.90;;;;;;5031756;28;20057;-85
2024/01/20 04:16:06;;;;;;;0.63;0.60;;;1.90;70.30;;;;;;5048545;28;20103;-84
2024/01/20 04:18:37;;;;;;;0.43;0.38;;;2.00;55.50;;;;;;5031633;28;20153;-84
2024/01/20 04:21:07;;;;;;;0.70;0.43;;;1.90;46.80;;;;;;5048941;28;20530;-85
2024/01/20 04:23:34;;;;;;;0.70;0.50;;;1.80;34.60;;;;;;5044256;28;20049;-84
2024/01/20 04:26:03;;;;;;;0.40;0.40;;;1.80;46.60;;;;;;5019869;28;20051;-85
2024/01/20 04:28:31;;;;;;;0.38;0.30;;;1.70;40.90;;;;;;5018843;28;20053;-84
2024/01/20 04:30:57;;;;;;;0.82;0.40;;;1.80;49.90;;;;;;5018677;28;20056;-84
2024/01/20 04:33:25;;;;;;;0.50;0.50;;;1.80;58.40;;;;;;5014767;28;20064;-85
2024/01/20 04:35:52;;;;;;;0.98;0.50;;;1.80;63.90;;;;;;5032293;28;20064;-84
2024/01/20 04:38:21;;;;;;;0.52;0.40;;;1.80;76.30;;;;;;5030751;28;20060;-84
2024/01/20 04:40:47;;;;;;;1.15;0.60;;;1.80;92.20;;;;;;5031287;28;20057;-84
2024/01/20 04:43:14;;;;;;;0.60;0.40;;;1.90;91.90;;;;;;5038599;28;20060;-84
2024/01/20 04:45:44;;;;;;;0.40;0.40;;;1.90;91.80;;;;;;5035434;28;20132;-84
2024/01/20 04:48:13;;;;;;;1.00;0.75;;;2.00;85.70;;;;;;5035418;28;20053;-84
2024/01/20 04:50:40;;;;;;;0.63;0.50;;;2.10;84.40;;;;;;5035556;28;20076;-84
2024/01/20 04:53:07;;;;;;;1.17;0.50;;;2.10;75.70;;;;;;5034689;28;20076;-85
2024/01/20 04:55:40;;;;;;;0.30;0.30;;;2.10;66.20;;;;;;5019472;28;20057;-84
2024/01/20 04:58:07;;;;;;;0.82;0.60;;;2.10;75.20;;;;;;5018521;28;20052;-84
2024/01/20 05:00:35;;;;;;;0.57;0.47;;;2.20;73.40;;;;;;5018363;28;20441;-84
2024/01/20 05:03:03;;;;;;;0.57;0.47;;;2.20;51.30;;;;;;5017977;28;20053;-85
2024/01/20 05:05:31;;;;;;;0.70;0.50;;;2.20;55.70;;;;;;5017265;28;20076;-84
2024/01/20 05:07:58;;;;;;;0.22;0.22;;;2.20;67.60;;;;;;5016678;28;20139;-84
2024/01/20 05:10:27;;;;;;;1.52;0.80;;;2.30;52.30;;;;;;5016759;28;20071;-84
2024/01/20 05:12:57;;;;;;;1.20;0.60;;;2.20;61.50;;;;;;5017564;28;20063;-84
2024/01/20 05:15:26;;;;;;;0.50;0.40;;;2.30;68.10;;;;;;5034149;28;20462;-84
2024/01/20 05:17:59;;;;;;;0.60;0.57;;;2.40;66.40;;;;;;5017243;28;20135;-84
2024/01/20 05:20:28;;;;;;;2.58;0.70;;;2.40;59.10;;;;;;5018268;28;20095;-84
2024/01/20 05:22:56;;;;;;;0.90;0.70;;;2.50;49.50;;;;;;5017204;28;20107;-85
2024/01/20 05:25:23;;;;;;;0.80;0.70;;;2.60;26.20;;;;;;5017726;28;20517;-84
2024/01/20 05:27:51;;;;;;;1.02;0.80;;;2.60;26.70;;;;;;5017193;28;20061;-84
2024/01/20 05:30:18;;;;;;;1.08;0.63;;;2.70;15.80;;;;;;5017014;28;20052;-84
2024/01/20 05:32:47;;;;;;;1.27;0.77;;;2.80;2.60;;;;;;5017050;28;20414;-84
2024/01/20 05:35:25;;;;;;;1.33;0.70;;;2.80;1.00;;;;;;5016583;28;20091;-84
2024/01/20 05:37:55;;;;;;;2.92;1.45;;;2.80;1.00;;;;;;5016262;28;20158;-84
2024/01/20 05:40:23;;;;;;;1.75;1.02;;;2.90;1.00;;;;;;5016851;28;20717;-84
2024/01/20 05:42:50;;;;;;;1.52;0.90;;;2.90;1.00;;;;;;5017674;28;20048;-84
2024/01/20 05:45:19;;;;;;;0.98;0.70;;;3.00;1.00;;;;;;5016199;28;20068;-84
2024/01/20 05:47:47;;;;;;;0.80;0.60;;;3.00;1.00;;;;;;5016749;28;20075;-84
2024/01/20 05:50:17;;;;;;;2.15;1.08;;;3.00;1.00;;;;;;5014572;28;20048;-84
2024/01/20 05:52:45;;;;;;;2.00;1.20;;;3.00;1.00;;;;;;5031161;28;20137;-84
2024/01/20 05:55:12;;;;;;;1.88;1.25;;;3.00;1.00;;;;;;5014570;28;20110;-84
2024/01/20 05:57:39;;;;;;;2.05;1.20;;;3.00;1.00;;;;;;5014510;28;20053;-84
2024/01/20 06:00:13;;;;;;;2.03;1.00;;;3.10;1.00;;;;;;5014355;28;20099;-84
2024/01/20 06:02:40;;;;;;;1.63;0.90;;;3.10;1.00;;;;;;5012956;28;20498;-85
2024/01/20 06:05:08;;;;;;;1.38;1.20;;;3.10;1.00;;;;;;5011940;28;20053;-84
2024/01/20 06:07:36;;;;;;;1.90;1.23;;;3.20;1.00;;;;;;5012328;28;20068;-85
2024/01/20 06:10:04;;;;;;;2.05;1.08;;;3.10;1.00;;;;;;5013470;28;20228;-87
2024/01/20 06:12:35;;;;;;;1.25;0.88;;;3.20;1.00;;;;;;5040040;28;20095;-86
2024/01/20 06:15:06;;;;;;;1.95;1.10;;;3.20;1.00;;;;;;5032127;28;20049;-86
2024/01/20 06:17:33;;;;;;;1.98;0.80;;;3.20;1.00;;;;;;5016525;28;20068;-86
2024/01/20 06:20:00;;;;;;;1.67;1.20;;;3.20;1.00;;;;;;5032194;28;20049;-86
2024/01/20 06:22:29;;;;;;;1.83;1.40;;;3.20;1.00;;;;;;5016120;28;20059;-86
2024/01/20 06:24:56;;;;;;;2.47;1.27;;;3.10;1.00;;;;;;5029159;28;20057;-86
2024/01/20 06:27:30;;;;;;;2.00;0.98;;;3.10;1.00;;;;;;5012524;28;20075;-85
2024/01/20 06:29:57;;;;;;;1.98;0.93;;;3.10;1.00;;;;;;5029827;28;20048;-86
2024/01/20 06:32:25;;;;;;;1.45;0.85;;;3.20;1.00;;;;;;5012991;28;20094;-86
2024/01/20 06:34:56;;;;;;;0.90;0.70;;;3.20;1.00;;;;;;5029456;28;20040;-85
2024/01/20 06:37:25;;;;;;;1.35;0.85;;;3.30;1.00;;;;;;5026226;28;20430;-86
2024/01/20 06:40:00;;;;;;;1.80;0.95;;;3.30;1.00;;;;;;5026646;28;20103;-85
2024/01/20 06:42:28;;;;;;;1.13;0.82;;;3.30;1.00;;;;;;5010690;28;20053;-85
2024/01/20 06:44:58;;;;;;;1.98;1.00;;;3.40;1.00;;;;;;5007006;28;20072;-85
2024/01/20 06:47:37;;;;;;;1.05;0.73;;;3.30;1.00;;;;;;5024242;28;20064;-85
2024/01/20 06:50:05;;;;;;;1.35;0.85;;;3.40;1.00;;;;;;5040888;28;20044;-86
2024/01/20 06:52:32;;;;;;;1.40;0.90;;;3.40;1.00;;;;;;5010688;28;20052;-84
2024/01/20 06:54:59;;;;;;;1.23;0.90;;;3.50;1.00;;;;;;5022704;28;20060;-85
2024/01/20 06:57:29;;;;;;;1.10;0.70;;;3.50;1.00;;;;;;5010270;28;20778;-85
2024/01/20 06:59:57;;;;;;;1.90;1.00;;;3.50;1.00;;;;;;5010864;28;20406;-84
2024/01/20 07:02:24;;;;;;;1.40;1.00;;;3.50;1.00;;;;;;5009563;28;20146;-85
2024/01/20 07:04:54;;;;;;;1.40;0.90;;;3.60;1.00;;;;;;5011171;28;20065;-86
2024/01/20 07:07:29;;;;;;;1.73;1.08;;;3.60;1.00;;;;;;5030303;28;20060;-84
2024/01/20 07:09:58;;;;;;;1.33;0.88;;;3.60;1.00;;;;;;5029899;28;20060;-85
2024/01/20 07:12:31;;;;;;;2.15;1.25;;;3.60;1.00;;;;;;5008332;28;20042;-86
2024/01/20 07:14:59;;;;;;;1.30;0.60;;;3.60;1.00;;;;;;5027606;28;20255;-85
2024/01/20 07:17:27;;;;;;;1.30;0.70;;;3.50;1.00;;;;;;5023720;28;20049;-85
2024/01/20 07:19:55;;;;;;;1.77;1.00;;;3.50;1.00;;;;;;5013924;28;20137;-85
2024/01/20 07:22:22;;;;;;;2.22;1.02;;;3.50;1.00;;;;;;5013065;28;20045;-85
2024/01/20 07:24:49;;;;;;;1.08;0.70;;;3.50;1.00;;;;;;5014383;28;20087;-85
2024/01/20 07:27:16;;;;;;;1.13;0.85;;;3.50;1.00;;;;;;5014670;28;20057;-85
2024/01/20 07:29:43;;;;;;;3.63;1.48;;;3.50;1.00;;;;;;5014085;28;20052;-85
2024/01/20 07:32:11;;;;;;;1.58;0.90;;;3.50;1.00;;;;;;5029397;28;20541;-85
2024/01/20 07:34:38;;;;;;;2.10;1.13;;;3.50;1.00;;;;;;5030144;28;20114;-85
2024/01/20 07:37:05;;;;;;;1.23;0.80;;;3.50;1.00;;;;;;5013450;28;20128;-85
2024/01/20 07:39:32;;;;;;;1.98;1.00;;;3.50;1.00;;;;;;5013307;28;20052;-85
2024/01/20 07:42:00;;;;;;;1.77;1.00;;;3.40;1.00;;;;;;5014699;28;20064;-85
2024/01/20 07:44:29;;;;;;;1.70;0.90;;;3.40;1.00;;;;;;5013394;28;20546;-85
2024/01/20 07:46:58;;;;;;;1.65;0.85;;;3.50;1.00;;;;;;5031854;28;20074;-86
2024/01/20 07:49:28;;;;;;;1.50;0.70;;;3.50;1.00;;;;;;5025958;28;20050;-85
2024/01/20 07:51:55;;;;;;;0.75;0.63;;;3.50;1.00;;;;;;5044294;28;20510;-86
2024/01/20 07:54:23;;;;;;;2.47;1.17;;;3.50;1.00;;;;;;5030613;28;20089;-85
2024/01/20 07:56:52;;;;;;;2.13;1.10;;;3.50;1.00;;;;;;5030881;28;20064;-86
2024/01/20 07:59:21;;;;;;;2.28;1.05;;;3.50;1.00;;;;;;5017940;28;20546;-85
2024/01/20 08:01:48;;;;;;;1.48;0.90;;;3.50;1.00;;;;;;5009848;28;20049;-85
2024/01/20 08:04:17;;;;;;;1.58;1.15;;;3.60;1.00;;;;;;5025724;28;20068;-85
2024/01/20 08:06:44;;;;;;;2.55;1.08;;;3.60;1.00;;;;;;5026081;28;20053;-85
2024/01/20 08:09:12;;;;;;;1.42;0.90;;;3.60;1.00;;;;;;5033595;28;20140;-84
2024/01/20 08:11:40;;;;;;;1.48;1.00;;;3.60;1.00;;;;;;5012372;28;20045;-84
2024/01/20 08:14:09;;;;;;;1.48;0.90;;;3.60;1.00;;;;;;5011509;28;20059;-84
2024/01/20 08:16:37;;;;;;;1.70;1.00;;;3.70;1.00;;;;;;5025833;28;20045;-84
2024/01/20 08:19:04;;;;;;;1.88;1.30;;;3.70;1.00;;;;;;5027785;28;20777;-84
2024/01/20 08:21:31;;;;;;;1.17;0.80;;;3.70;1.00;;;;;;5029273;28;20049;-84
2024/01/20 08:23:59;;;;;;;2.88;1.38;;;3.70;1.00;;;;;;5025164;28;20128;-84
2024/01/20 08:26:32;;;;;;;1.52;0.90;;;3.70;1.00;;;;;;5012708;28;20064;-85
2024/01/20 08:29:01;;;;;;;2.43;1.30;;;3.80;1.00;;;;;;5024037;28;20134;-84
2024/01/20 08:31:28;;;;;;;2.05;1.13;;;3.80;1.00;;;;;;5012620;28;20464;-85
2024/01/20 08:33:55;;;;;;;2.72;1.10;;;3.90;1.00;;;;;;5013027;28;20080;-84
2024/01/20 08:36:24;;;;;;;3.40;1.20;;;3.90;1.00;;;;;;5012482;28;20061;-83
2024/01/20 08:38:52;;;;;;;2.85;1.00;;;4.00;1.00;;;;;;5007476;28;20410;-84
2024/01/20 08:41:20;;;;;;;2.40;1.40;;;4.00;1.00;;;;;;5043093;28;20111;-83
2024/01/20 08:43:48;;;;;;;2.70;1.35;;;4.10;1.00;;;;;;5012503;28;20148;-87
2024/01/20 08:46:15;;;;;;;2.92;1.50;;;4.10;1.00;;;;;;5024493;28;20119;-86
2024/01/20 08:48:43;;;;;;;2.50;1.30;;;4.10;1.00;;;;;;5009692;28;20392;-86
2024/01/20 08:51:13;;;;;;;2.90;1.17;;;4.20;1.00;;;;;;5012356;28;20098;-85
2024/01/20 08:53:41;;;;;;;3.22;1.83;;;4.20;1.00;;;;;;5022521;28;20119;-85
2024/01/20 08:56:10;;;;;;;2.08;1.00;;;4.20;1.00;;;;;;5012316;28;20052;-88
2024/01/20 08:58:37;;;;;;;2.80;1.40;;;4.30;1.00;;;;;;5027517;28;20737;-85
2024/01/20 09:01:06;;;;;;;2.42;1.30;;;4.30;1.00;;;;;;5006790;28;20061;-87
2024/01/20 09:03:33;;;;;;;4.68;1.65;;;4.40;1.00;;;;;;5042712;28;20057;-86
2024/01/20 09:06:02;;;;;;;2.45;1.23;;;4.40;1.00;;;;;;5029718;28;20145;-87
2024/01/20 09:08:30;;;;;;;2.03;1.20;;;4.40;1.00;;;;;;5028416;28;20202;-87
2024/01/20 09:10:58;;;;;;;2.60;1.17;;;4.50;1.00;;;;;;5008174;28;20052;-87
2024/01/20 09:13:26;;;;;;;2.38;1.17;;;4.50;1.00;;;;;;5018580;28;20344;-85
2024/01/20 09:15:59;;;;;;;2.67;1.15;;;4.50;1.00;;;;;;5026377;28;20055;-87
2024/01/20 09:18:30;;;;;;;1.20;1.10;;;4.60;1.00;;;;;;5010070;28;20048;-86
2024/01/20 09:21:00;;;;;;;1.30;1.00;;;4.60;1.00;;;;;;5024761;28;20059;-86
2024/01/20 09:23:28;;;;;;;1.70;1.23;;;4.70;1.00;;;;;;5007286;28;20413;-86
2024/01/20 09:25:56;;;;;;;3.08;1.20;;;4.70;1.00;;;;;;5019598;28;20041;-89
2024/01/20 09:28:24;;;;;;;1.35;0.80;;;4.70;1.00;;;;;;5025686;28;20114;-84
2024/01/20 09:30:52;;;;;;;2.45;1.20;;;4.70;1.00;;;;;;5026028;28;20053;-86
2024/01/20 09:33:19;;;;;;;1.02;0.80;;;4.70;1.00;;;;;;5007101;28;20049;-85
2024/01/20 09:36:04;;;;;;;2.28;0.93;;;4.70;1.00;;;;;;5103996;27;20426;-80
2024/01/20 09:38:31;;;;;;;2.72;1.15;;;4.80;1.00;;;;;;5078382;28;20495;-82
2024/01/20 09:40:58;;;;;;;1.17;0.90;;;4.80;1.00;;;;;;5059020;28;20810;-78
2024/01/20 09:43:25;;;;;;;1.67;0.90;;;4.90;1.00;;;;;;5044829;28;20436;-79
2024/01/20 09:45:52;;;;;;;2.20;1.23;;;4.90;1.00;;;;;;5042791;28;20059;-80
2024/01/20 09:48:19;;;;;;;2.10;0.90;;;4.90;1.00;;;;;;5030919;28;20545;-78
2024/01/20 09:50:47;;;;;;;1.88;1.00;;;4.90;1.00;;;;;;5062632;28;20047;-77
2024/01/20 09:53:15;;;;;;;1.63;1.20;;;5.00;1.00;;;;;;5059558;28;20048;-78
2024/01/20 09:55:43;;;;;;;2.58;1.30;;;5.00;1.00;;;;;;5061538;28;20047;-78
2024/01/20 09:58:14;;;;;;;3.25;1.13;;;5.10;1.00;;;;;;5044422;28;20546;-78
2024/01/20 10:00:41;;;;;;;1.35;0.70;;;5.10;1.00;;;;;;5062286;28;20430;-78
2024/01/20 10:03:09;;;;;;;2.15;0.90;;;5.10;1.00;;;;;;5036100;28;20040;-79
2024/01/20 10:05:37;;;;;;;1.58;0.90;;;5.20;1.00;;;;;;5045261;28;20067;-79
2024/01/20 10:08:05;;;;;;;1.13;0.85;;;5.20;1.00;;;;;;5088323;28;20132;-77
2024/01/20 10:10:33;;;;;;;1.70;0.98;;;5.20;1.00;;;;;;5055136;28;20052;-77
2024/01/20 10:13:03;;;;;;;1.60;1.17;;;5.30;1.00;;;;;;5030220;28;20822;-77
2024/01/20 10:15:30;;;;;;;1.55;1.02;;;5.30;1.00;;;;;;5035281;28;20071;-78
2024/01/20 10:18:08;;;;;;;1.50;1.02;;;5.40;1.00;;;;;;5051247;28;20059;-79
2024/01/20 10:20:36;;;;;;;1.23;0.93;;;5.40;1.00;;;;;;5058457;28;20045;-80
2024/01/20 10:23:04;;;;;;;1.63;0.90;;;5.30;1.00;;;;;;5049359;28;20051;-77
2024/01/20 10:25:31;;;;;;;2.58;1.35;;;5.40;1.00;;;;;;5026003;28;20055;-78
2024/01/20 10:27:58;;;;;;;2.03;1.10;;;5.50;1.00;;;;;;5049665;28;20040;-79
2024/01/20 10:30:26;;;;;;;1.42;0.90;;;5.50;1.00;;;;;;5044361;28;20056;-78
2024/01/20 10:32:53;;;;;;;2.25;1.05;;;5.50;1.00;;;;;;5050467;28;20395;-77
2024/01/20 10:35:35;;;;;;;1.75;1.00;;;5.50;1.00;;;;;;5051575;28;20051;-78
2024/01/20 10:38:02;;;;;;;3.10;0.85;;;5.50;1.00;;;;;;5073507;28;20749;-77
2024/01/20 10:40:29;;;;;;;2.53;1.25;;;5.60;1.00;;;;;;5059771;28;20043;-78
2024/01/20 10:43:00;;;;;;;1.35;0.80;;;5.70;1.00;;;;;;5072265;28;20044;-77
2024/01/20 10:45:29;;;;;;;1.52;0.82;;;5.70;1.00;;;;;;5025517;28;20055;-77
2024/01/20 10:48:26;;;;;;;1.42;1.10;;;5.80;1.00;;;;;;5033207;28;20412;-81
2024/01/20 10:50:58;;;;;;;0.63;0.52;;;5.90;1.00;;;;;;5055668;28;20198;-78
2024/01/20 10:53:26;;;;;;;2.40;0.80;;;5.90;1.00;;;;;;5055039;28;20048;-78
2024/01/20 10:55:53;;;;;;;1.42;0.77;;;6.00;1.00;;;;;;5047127;28;20057;-78
2024/01/20 10:58:23;;;;;;;1.48;0.85;;;6.00;1.00;;;;;;5036306;28;20059;-82
2024/01/20 11:00:50;;;;;;;1.70;1.00;;;6.00;1.00;;;;;;5037668;28;20241;-81
2024/01/20 11:03:17;;;;;;;2.45;1.30;;;6.10;1.00;;;;;;5030454;28;20048;-78
2024/01/20 11:05:47;;;;;;;1.75;0.70;;;6.10;1.00;;;;;;5030743;28;20049;-81
2024/01/20 11:08:23;;;;;;;2.38;0.90;;;6.10;1.00;;;;;;5046129;28;20052;-78
2024/01/20 11:10:51;;;;;;;0.90;0.80;;;6.20;1.00;;;;;;5050509;28;20059;-78
2024/01/20 11:13:18;;;;;;;1.20;1.00;;;6.20;1.00;;;;;;5019647;28;20048;-78
2024/01/20 11:15:49;;;;;;;1.50;0.80;;;6.30;1.00;;;;;;5047181;28;20048;-80
2024/01/20 11:18:19;;;;;;;1.05;0.63;;;6.30;1.00;;;;;;5014374;28;20062;-80
2024/01/20 11:20:54;;;;;;;1.20;0.60;;;6.30;1.00;;;;;;5031096;28;20098;-82
2024/01/20 11:23:21;;;;;;;1.67;0.82;;;6.30;1.00;;;;;;5056723;28;20048;-82
2024/01/20 11:25:49;;;;;;;1.85;0.70;;;6.30;1.00;;;;;;5067051;28;20060;-81
2024/01/20 11:28:32;;;;;;;2.47;1.15;;;6.40;1.00;;;;;;5049195;28;20048;-80
2024/01/20 11:30:59;;;;;;;;;;;6.40;1.00;;;;;;5052102;28;20056;-80
2024/01/20 11:33:26;;;;;;;1.80;0.80;;;6.50;1.00;;;;;;5072258;28;19963;-79
2024/01/20 11:35:53;;;;;;;2.45;0.88;;;6.60;1.00;;;;;;5030331;28;20063;-79
2024/01/20 11:38:21;;;;;;;1.20;0.63;;;6.60;1.00;;;;;;5012757;28;20056;-78
2024/01/20 11:41:00;;;;;;;1.45;0.65;;;6.60;1.00;;;;;;5025145;28;20052;-79
2024/01/20 11:43:27;;;;;;;1.42;0.77;;;6.70;1.00;;;;;;5013411;28;20048;-80
2024/01/20 11:45:58;;;;;;;0.93;0.80;;;6.80;1.00;;;;;;5041911;28;20115;-77
2024/01/20 11:48:25;;;;;;;2.55;0.95;;;6.80;1.00;;;;;;5046775;28;20044;-78
2024/01/20 11:50:52;;;;;;;1.38;0.80;;;6.90;1.00;;;;;;5065464;28;20047;-77
2024/01/20 11:53:21;;;;;;;1.08;0.65;;;7.00;1.00;;;;;;5035526;28;20071;-78
2024/01/20 11:55:58;;;;;;;1.67;0.65;;;7.00;1.00;;;;;;5034211;28;20491;-77
2024/01/20 11:58:26;;;;;;;2.38;1.40;;;7.10;1.00;;;;;;5028555;28;20083;-80
2024/01/20 12:00:53;;;;;;;1.00;0.60;;;7.00;1.00;;;;;;5042092;28;20054;-78
2024/01/20 12:03:21;;;;;;;1.05;0.60;;;7.00;1.00;;;;;;5040168;28;20097;-79
2024/01/20 12:05:48;;;;;;;0.70;0.43;;;7.10;1.00;;;;;;5044775;28;20052;-78
2024/01/20 12:08:16;;;;;;;0.55;0.50;;;7.10;1.00;;;;;;5027215;28;20237;-79
2024/01/20 12:10:44;;;;;;;2.88;0.90;;;7.10;1.00;;;;;;5031108;28;20059;-78
2024/01/20 12:13:12;;;;;;;1.52;0.82;;;7.00;1.00;;;;;;5019205;28;20048;-78
2024/01/20 12:15:42;;;;;;;1.40;0.80;;;7.00;1.00;;;;;;5028473;28;20136;-79
2024/01/20 12:18:09;;;;;;;1.25;0.55;;;7.00;1.00;;;;;;5023723;28;20460;-78
2024/01/20 12:20:36;;;;;;;1.70;0.73;;;7.00;1.00;;;;;;5040678;28;20048;-80
2024/01/20 12:23:04;;;;;;;1.73;0.70;;;7.00;1.00;;;;;;5048228;28;20162;-78
2024/01/20 12:25:32;;;;;;;1.65;0.80;;;7.00;1.00;;;;;;5043192;28;20051;-78
2024/01/20 12:27:59;;;;;;;1.25;0.80;;;7.00;1.00;;;;;;5024080;28;20056;-81
2024/01/20 12:30:29;;;;;;;2.05;1.00;;;6.90;1.00;;;;;;5058654;28;20063;-79
2024/01/20 12:32:56;;;;;;;1.65;1.00;;;6.90;1.00;;;;;;5043526;28;20475;-81
2024/01/20 12:35:24;;;;;;;1.73;0.98;;;6.90;1.00;;;;;;5043965;28;20649;-79
2024/01/20 12:37:50;;;;;;;1.50;0.77;;;6.80;1.00;;;;;;5029714;28;20984;-79
2024/01/20 12:40:18;;;;;;;1.40;0.80;;;6.80;1.00;;;;;;5060626;28;20147;-80
2024/01/20 12:42:45;;;;;;;1.52;1.02;;;6.80;1.00;;;;;;5030664;28;20091;-81
2024/01/20 12:45:15;;;;;;;2.40;1.13;;;6.90;1.00;;;;;;5032776;28;20245;-80
2024/01/20 12:47:42;;;;;;;4.97;1.40;;;7.00;1.00;;;;;;5026606;28;20044;-79
2024/01/20 12:50:09;;;;;;;1.52;0.80;;;7.10;1.00;;;;;;5031563;28;20056;-80
2024/01/20 12:52:36;;;;;;;2.28;0.98;;;7.20;1.00;;;;;;5055708;28;20065;-82
2024/01/20 12:55:05;;;;;;;1.85;0.90;;;7.20;1.00;;;;;;5033862;28;20579;-79
2024/01/20 12:57:32;;;;;;;1.48;0.75;;;7.20;1.00;;;;;;5017501;28;20490;-82
2024/01/20 12:59:59;;;;;;;1.20;0.60;;;7.30;1.00;;;;;;5034572;28;20076;-78
2024/01/20 13:02:26;;;;;;;1.15;0.60;;;7.40;1.00;;;;;;5036097;28;20062;-78
2024/01/20 13:04:53;;;;;;;1.77;1.05;;;7.40;1.00;;;;;;5045544;28;20075;-79
2024/01/20 13:07:22;;;;;;;2.00;0.98;;;7.40;1.00;;;;;;5009738;28;20155;-78
2024/01/20 13:09:49;;;;;;;2.45;1.08;;;7.30;1.00;;;;;;5010714;28;20055;-79
2024/01/20 13:12:16;;;;;;;1.00;0.63;;;7.40;1.00;;;;;;5049018;28;20134;-82